createdAt,value
2023-03-27T00:02:07.352Z,91874.41
2023-03-27T00:07:09.217Z,91872.16
2023-03-27T00:12:10.996Z,91897.06
2023-03-27T00:17:13.477Z,91908.13
2023-03-27T00:22:15.707Z,91901.41
2023-03-27T00:27:17.411Z,91906.06
2023-03-27T00:32:19.770Z,91902.91
2023-03-27T00:37:21.687Z,91916.00
2023-03-27T00:42:24.679Z,91928.72
2023-03-27T00:47:33.735Z,91938.06
2023-03-27T00:52:37.118Z,91952.84
2023-03-27T00:57:39.965Z,91954.34
2023-03-27T01:02:44.551Z,91949.78
2023-03-27T01:08:00.801Z,91967.09
2023-03-27T01:13:23.896Z,91954.28
2023-03-27T01:18:47.374Z,91962.16
2023-03-27T01:24:15.573Z,91963.22
2023-03-27T01:29:31.612Z,91954.13
2023-03-27T01:35:08.057Z,91962.94
2023-03-27T01:40:19.899Z,91965.72
2023-03-27T01:45:33.186Z,91962.84
2023-03-27T01:50:54.116Z,91979.59
2023-03-27T01:56:05.930Z,91965.47
2023-03-27T02:01:10.328Z,91963.53
2023-03-27T02:06:28.310Z,91953.84
2023-03-27T02:11:36.916Z,91982.41
2023-03-27T02:16:46.312Z,91996.38
2023-03-27T02:21:48.455Z,91996.31
2023-03-27T02:26:59.857Z,91999.41
2023-03-27T02:32:10.309Z,91994.84
2023-03-27T02:37:23.018Z,92004.28
2023-03-27T02:43:19.155Z,92013.31
2023-03-27T02:48:39.500Z,91992.91
2023-03-27T02:53:48.063Z,92015.84
2023-03-27T02:59:04.038Z,92020.03
2023-03-27T03:04:24.123Z,92040.59
2023-03-27T03:09:44.564Z,92036.53
2023-03-27T03:14:46.532Z,92064.97
2023-03-27T03:19:49.427Z,92064.91
2023-03-27T03:24:51.144Z,92067.22
2023-03-27T03:29:56.762Z,92075.63
2023-03-27T03:35:02.074Z,92077.44
2023-03-27T03:40:14.692Z,92089.94
2023-03-27T03:45:21.012Z,92025.22
2023-03-27T03:50:23.198Z,92103.63
2023-03-27T03:55:25.896Z,92108.41
2023-03-27T04:00:28.440Z,92129.38
2023-03-27T04:05:32.164Z,92129.88
2023-03-27T04:10:35.835Z,92146.75
2023-03-27T04:15:40.613Z,92147.22
2023-03-27T04:20:42.402Z,92153.59
2023-03-27T04:25:47.646Z,92162.06
2023-03-27T04:30:55.842Z,92173.31
2023-03-27T04:36:10.324Z,92184.03
2023-03-27T04:41:34.913Z,92202.13
2023-03-27T04:46:37.903Z,92186.66
2023-03-27T04:51:47.976Z,92178.53
2023-03-27T04:56:50.772Z,92177.31
2023-03-27T05:01:52.799Z,92171.44
2023-03-27T05:07:04.276Z,92187.03
2023-03-27T05:12:06.755Z,92197.56
2023-03-27T05:17:16.422Z,92196.44
2023-03-27T05:22:20.065Z,92203.25
2023-03-27T05:27:29.711Z,92220.16
2023-03-27T05:32:32.237Z,92218.88
2023-03-27T05:37:47.742Z,92232.63
2023-03-27T05:42:59.794Z,92205.28
2023-03-27T05:48:04.288Z,92218.63
2023-03-27T05:53:11.838Z,92253.84
2023-03-27T05:58:35.967Z,92262.16
2023-03-27T06:03:38.677Z,92260.66
2023-03-27T06:08:47.885Z,92258.06
2023-03-27T06:13:49.788Z,92265.19
2023-03-27T06:18:59.839Z,92263.94
2023-03-27T06:24:02.645Z,92264.22
2023-03-27T06:29:07.850Z,92260.91
2023-03-27T06:34:14.830Z,92255.91
2023-03-27T06:39:28.637Z,92274.91
2023-03-27T06:44:30.681Z,92309.41
2023-03-27T06:50:11.012Z,92314.44
2023-03-27T06:55:14.903Z,92350.47
2023-03-27T07:00:28.968Z,92319.25
2023-03-27T07:05:49.712Z,92329.53
2023-03-27T07:11:08.079Z,92347.13
2023-03-27T07:16:16.973Z,92354.28
2023-03-27T07:21:19.284Z,92361.56
2023-03-27T07:26:21.336Z,92377.31
2023-03-27T07:31:51.573Z,92398.69
2023-03-27T07:37:01.659Z,92402.50
2023-03-27T07:42:04.678Z,92406.44
2023-03-27T07:47:18.743Z,92342.78
2023-03-27T07:52:21.674Z,92416.13
2023-03-27T07:57:57.248Z,92405.91
2023-03-27T08:03:11.645Z,92398.19
2023-03-27T08:08:18.492Z,92433.25
2023-03-27T08:13:26.262Z,92414.56
2023-03-27T08:18:28.271Z,92449.06
2023-03-27T08:23:32.670Z,92452.00
2023-03-27T08:28:56.203Z,92441.28
2023-03-27T08:34:01.443Z,92451.41
2023-03-27T08:39:13.053Z,92448.50
2023-03-27T08:44:25.962Z,92468.56
2023-03-27T08:49:33.208Z,92469.50
2023-03-27T08:55:13.463Z,92464.41
2023-03-27T09:00:29.415Z,92477.13
2023-03-27T09:05:53.306Z,92486.00
2023-03-27T09:11:03.194Z,92503.13
2023-03-27T09:16:16.016Z,92492.81
2023-03-27T09:21:23.313Z,92499.03
2023-03-27T09:26:34.818Z,92509.69
2023-03-27T09:31:58.308Z,92550.31
2023-03-27T09:37:02.822Z,92546.19
2023-03-27T09:42:34.676Z,92549.38
2023-03-27T09:48:05.818Z,92564.72
2023-03-27T09:53:25.191Z,92564.38
2023-03-27T09:58:46.195Z,92571.31
2023-03-27T10:03:49.810Z,92581.94
2023-03-27T10:08:55.772Z,92583.69
2023-03-27T10:14:13.323Z,92559.50
2023-03-27T10:19:32.466Z,92595.78
2023-03-27T10:24:44.456Z,92600.47
2023-03-27T10:29:47.817Z,92602.97
2023-03-27T10:34:53.469Z,92602.50
2023-03-27T10:40:31.774Z,92608.06
2023-03-27T10:45:47.042Z,92614.72
2023-03-27T10:50:57.631Z,92625.72
2023-03-27T10:56:38.347Z,92602.88
2023-03-27T11:01:45.932Z,92626.31
2023-03-27T11:06:50.837Z,92617.09
2023-03-27T11:12:06.031Z,92631.13
2023-03-27T11:17:15.944Z,92633.47
2023-03-27T11:22:48.370Z,92636.41
2023-03-27T11:28:19.619Z,92642.38
2023-03-27T11:33:43.442Z,92650.38
2023-03-27T11:38:59.747Z,92651.97
2023-03-27T11:44:01.814Z,92674.13
2023-03-27T11:49:42.854Z,92677.50
2023-03-27T11:55:11.966Z,92688.09
2023-03-27T12:00:18.097Z,92690.88
2023-03-27T12:05:20.262Z,92702.84
2023-03-27T12:10:33.824Z,92706.41
2023-03-27T12:16:14.984Z,92714.63
2023-03-27T12:21:46.535Z,92707.13
2023-03-27T12:27:13.593Z,92721.97
2023-03-27T12:32:32.244Z,92732.25
2023-03-27T12:38:02.061Z,92711.22
2023-03-27T12:43:30.514Z,92732.25
2023-03-27T12:49:22.836Z,92742.84
2023-03-27T12:54:38.628Z,92744.63
2023-03-27T13:00:25.465Z,92756.38
2023-03-27T13:05:53.000Z,92747.50
2023-03-27T13:11:42.845Z,92765.41
2023-03-27T13:17:15.496Z,92767.69
2023-03-27T13:22:18.844Z,92778.88
2023-03-27T13:27:39.325Z,92772.34
2023-03-27T13:32:41.716Z,92745.66
2023-03-27T13:37:58.409Z,92772.72
2023-03-27T13:43:28.478Z,92772.56
2023-03-27T13:49:18.209Z,92805.34
2023-03-27T13:54:58.481Z,92777.50
2023-03-27T14:00:31.899Z,92825.78
2023-03-27T14:06:03.794Z,92837.44
2023-03-27T14:11:48.859Z,92836.59
2023-03-27T14:17:35.625Z,92853.63
2023-03-27T14:22:40.310Z,92853.13
2023-03-27T14:27:45.617Z,92867.91
2023-03-27T14:32:49.939Z,92866.84
2023-03-27T14:38:03.560Z,92871.94
2023-03-27T14:43:17.995Z,92881.06
2023-03-27T14:48:33.084Z,92884.44
2023-03-27T14:53:44.053Z,92883.00
2023-03-27T14:59:00.922Z,92886.47
2023-03-27T15:04:14.045Z,92898.94
2023-03-27T15:09:19.450Z,92893.28
2023-03-27T15:14:33.451Z,92893.09
2023-03-27T15:19:45.667Z,92893.06
2023-03-27T15:25:10.111Z,92896.38
2023-03-27T15:30:35.473Z,92898.22
2023-03-27T15:35:41.941Z,92905.84
2023-03-27T15:40:46.797Z,92909.00
2023-03-27T15:46:21.469Z,92915.56
2023-03-27T15:51:23.134Z,92924.69
2023-03-27T15:56:27.780Z,92925.19
2023-03-27T16:01:32.824Z,92927.59
2023-03-27T16:06:39.650Z,92933.34
2023-03-27T16:11:46.739Z,92927.59
2023-03-27T16:16:49.737Z,92935.59
2023-03-27T16:21:56.386Z,92932.13
2023-03-27T16:26:58.205Z,92917.97
2023-03-27T16:32:00.192Z,92947.66
2023-03-27T16:37:02.148Z,92962.44
2023-03-27T16:42:03.990Z,92968.84
2023-03-27T16:47:05.871Z,92978.53
2023-03-27T16:52:08.149Z,92983.97
2023-03-27T16:57:11.158Z,92994.31
2023-03-27T17:02:13.326Z,92988.72
2023-03-27T17:07:15.854Z,92995.38
2023-03-27T17:12:17.604Z,92961.56
2023-03-27T17:17:19.573Z,93005.59
2023-03-27T17:22:21.515Z,92999.56
2023-03-27T17:27:24.139Z,93020.03
2023-03-27T17:32:28.223Z,93030.22
2023-03-27T17:37:30.124Z,93030.44
2023-03-27T17:42:31.919Z,93009.19
2023-03-27T17:47:33.830Z,93024.09
2023-03-27T17:52:35.728Z,93067.94
2023-03-27T17:57:38.059Z,93062.88
2023-03-27T18:02:40.000Z,93063.41
2023-03-27T18:07:42.351Z,93092.41
2023-03-27T18:12:44.181Z,93106.22
2023-03-27T18:17:46.086Z,93105.13
2023-03-27T18:22:47.978Z,93119.16
2023-03-27T18:27:50.020Z,93121.06
2023-03-27T18:32:52.164Z,93110.47
2023-03-27T18:37:54.048Z,93129.09
2023-03-27T18:42:55.962Z,93132.31
2023-03-27T18:47:57.849Z,93133.69
2023-03-27T18:52:59.784Z,93130.97
2023-03-27T18:58:01.717Z,93149.53
2023-03-27T19:03:03.665Z,93138.41
2023-03-27T19:08:05.906Z,93157.34
2023-03-27T19:13:07.996Z,93165.59
2023-03-27T19:18:30.093Z,93148.06
2023-03-27T19:23:48.576Z,93171.00
2023-03-27T19:28:52.815Z,93176.19
2023-03-27T19:33:54.625Z,93167.66
2023-03-27T19:38:56.859Z,93173.47
2023-03-27T19:44:00.607Z,93158.81
2023-03-27T19:49:03.169Z,93174.00
2023-03-27T19:54:21.465Z,93160.88
2023-03-27T19:59:30.392Z,93178.53
2023-03-27T20:04:32.912Z,93173.75
2023-03-27T20:09:36.953Z,93175.31
2023-03-27T20:14:38.689Z,93173.75
2023-03-27T20:19:48.766Z,93188.63
2023-03-27T20:24:50.607Z,93170.81
2023-03-27T20:29:52.431Z,93179.78
2023-03-27T20:34:54.761Z,93184.78
2023-03-27T20:39:57.046Z,93190.06
2023-03-27T20:45:00.138Z,93170.19
2023-03-27T20:50:03.638Z,93166.72
2023-03-27T20:55:06.556Z,93178.78
2023-03-27T21:00:09.336Z,93157.13
2023-03-27T21:05:11.093Z,93167.91
2023-03-27T21:10:13.513Z,93170.03
2023-03-27T21:15:15.456Z,93186.44
2023-03-27T21:20:17.349Z,93189.59
2023-03-27T21:25:21.223Z,93196.06
2023-03-27T21:30:46.382Z,93196.56
2023-03-27T21:35:49.682Z,93187.47
2023-03-27T21:40:51.471Z,93203.53
2023-03-27T21:45:53.240Z,93200.44
2023-03-27T21:51:08.383Z,93198.81
2023-03-27T21:56:10.256Z,93203.22
2023-03-27T22:01:12.182Z,93204.13
2023-03-27T22:06:14.155Z,93205.56
2023-03-27T22:11:16.297Z,93203.75
2023-03-27T22:16:18.175Z,93212.47
2023-03-27T22:21:23.320Z,93215.53
2023-03-27T22:26:30.411Z,93218.44
2023-03-27T22:31:32.221Z,93224.53
2023-03-27T22:36:34.072Z,93219.94
2023-03-27T22:41:35.888Z,93232.19
2023-03-27T22:46:37.867Z,93223.31
2023-03-27T22:51:39.650Z,93208.56
2023-03-27T22:56:41.479Z,93225.41
2023-03-27T23:01:43.491Z,93212.97
2023-03-27T23:06:45.309Z,93217.00
2023-03-27T23:11:47.329Z,93215.53
2023-03-27T23:16:49.289Z,93201.81
2023-03-27T23:21:51.252Z,93211.91
2023-03-27T23:26:53.112Z,93217.28
2023-03-27T23:31:54.898Z,93213.69
2023-03-27T23:36:56.634Z,93217.13
2023-03-27T23:41:58.375Z,93217.56
2023-03-27T23:47:00.247Z,93220.56
2023-03-27T23:52:02.023Z,93226.25
2023-03-27T23:57:04.243Z,93226.56
